createdAt,value
2022-09-11T00:00:37.115Z,62.3
2022-09-11T00:02:20.852Z,62.3
2022-09-11T00:04:04.570Z,62.3
2022-09-11T00:05:48.228Z,62.3
2022-09-11T00:07:31.943Z,62.4
2022-09-11T00:09:15.650Z,62.4
2022-09-11T00:10:59.377Z,62.3
2022-09-11T00:12:43.063Z,62.3
2022-09-11T00:14:26.744Z,62.3
2022-09-11T00:16:10.448Z,62.3
2022-09-11T00:17:54.149Z,62.3
2022-09-11T00:19:37.863Z,62.3
2022-09-11T00:21:21.547Z,62.4
2022-09-11T00:23:05.261Z,62.3
2022-09-11T00:24:48.951Z,62.3
2022-09-11T00:26:32.668Z,62.4
2022-09-11T00:28:16.355Z,62.4
2022-09-11T00:30:00.062Z,62.4
2022-09-11T00:31:43.781Z,62.4
2022-09-11T00:33:27.498Z,62.4
2022-09-11T00:35:11.193Z,62.4
2022-09-11T00:36:54.872Z,62.4
2022-09-11T00:38:38.581Z,62.4
2022-09-11T00:40:22.290Z,62.4
2022-09-11T00:42:05.991Z,62.3
2022-09-11T00:43:49.695Z,62.4
2022-09-11T00:45:33.400Z,62.3
2022-09-11T00:47:17.104Z,62.3
2022-09-11T00:49:00.796Z,62.4
2022-09-11T00:50:44.488Z,62.4
2022-09-11T00:52:28.215Z,62.4
2022-09-11T00:54:11.915Z,62.4
2022-09-11T00:55:55.597Z,62.3
2022-09-11T00:57:39.313Z,62.4
2022-09-11T00:59:23.003Z,62.4
2022-09-11T01:01:06.715Z,62.4
2022-09-11T01:02:50.401Z,62.3
2022-09-11T01:04:34.115Z,62.3
2022-09-11T01:06:17.824Z,62.3
2022-09-11T01:08:01.527Z,62.3
2022-09-11T01:09:45.221Z,62.4
2022-09-11T01:11:28.905Z,62.4
2022-09-11T01:13:12.665Z,62.4
2022-09-11T01:14:56.321Z,62.4
2022-09-11T01:16:40.019Z,62.4
2022-09-11T01:18:23.725Z,62.4
2022-09-11T01:20:07.432Z,62.4
2022-09-11T01:21:51.134Z,62.4
2022-09-11T01:23:34.857Z,62.4
2022-09-11T01:25:18.521Z,62.4
2022-09-11T01:27:02.243Z,62.4
2022-09-11T01:28:45.938Z,62.3
2022-09-11T01:30:29.646Z,62.3
2022-09-11T01:32:13.357Z,62.3
2022-09-11T01:33:57.063Z,62.3
2022-09-11T01:35:40.781Z,62.3
2022-09-11T01:37:24.452Z,62.3
2022-09-11T01:39:08.168Z,62.3
2022-09-11T01:40:51.869Z,62.3
2022-09-11T01:42:35.570Z,62.3
2022-09-11T01:44:19.269Z,62.3
2022-09-11T01:46:02.976Z,62.3
2022-09-11T01:47:46.675Z,62.3
2022-09-11T01:49:30.372Z,62.3
2022-09-11T01:51:14.075Z,62.3
2022-09-11T01:52:57.784Z,62.3
2022-09-11T01:54:41.498Z,62.3
2022-09-11T01:56:25.178Z,62.3
2022-09-11T01:58:08.895Z,62.3
2022-09-11T01:59:52.582Z,62.2
2022-09-11T02:01:36.305Z,62.2
2022-09-11T02:03:19.993Z,62.3
2022-09-11T02:05:03.691Z,62.3
2022-09-11T02:06:47.417Z,62.3
2022-09-11T02:08:31.100Z,62.2
2022-09-11T02:10:14.785Z,62.3
2022-09-11T02:11:58.501Z,62.2
2022-09-11T02:13:42.214Z,62.2
2022-09-11T02:15:25.922Z,62.2
2022-09-11T02:17:09.603Z,62.2
2022-09-11T02:18:53.315Z,62.2
2022-09-11T02:20:37.021Z,62.1
2022-09-11T02:22:20.717Z,62.1
2022-09-11T02:24:04.437Z,62.2
2022-09-11T02:25:48.123Z,62.2
2022-09-11T02:27:31.844Z,62.2
2022-09-11T02:29:15.564Z,62.2
2022-09-11T02:30:59.223Z,62.2
2022-09-11T02:32:42.940Z,62.2
2022-09-11T02:34:26.640Z,62.2
2022-09-11T02:36:10.364Z,62.2
2022-09-11T02:37:54.029Z,62.2
2022-09-11T02:39:37.745Z,62.2
2022-09-11T02:41:21.457Z,62.2
2022-09-11T02:43:05.170Z,62.1
2022-09-11T02:44:48.850Z,62.1
2022-09-11T02:46:32.555Z,62.2
2022-09-11T02:48:16.250Z,62.1
2022-09-11T02:49:59.981Z,62.1
2022-09-11T02:51:43.657Z,62.1
2022-09-11T02:53:27.453Z,62.2
2022-09-11T02:55:11.120Z,62.2
2022-09-11T02:56:54.793Z,62.1
2022-09-11T02:58:38.487Z,62.2
2022-09-11T03:00:22.193Z,62.1
2022-09-11T03:02:05.904Z,62.2
2022-09-11T03:03:49.661Z,62.2
2022-09-11T03:05:33.294Z,62.2
2022-09-11T03:07:17.004Z,62.2
2022-09-11T03:09:00.737Z,62.1
2022-09-11T03:10:44.402Z,62.1
2022-09-11T03:12:28.123Z,62.1
2022-09-11T03:14:11.823Z,62.1
2022-09-11T03:15:55.675Z,62.1
2022-09-11T03:17:39.231Z,62.1
2022-09-11T03:19:22.923Z,62.1
2022-09-11T03:21:06.641Z,62.1
2022-09-11T03:22:50.348Z,62.1
2022-09-11T03:24:34.043Z,62.1
2022-09-11T03:26:17.735Z,62.1
2022-09-11T03:28:01.437Z,62.1
2022-09-11T03:29:45.150Z,62.1
2022-09-11T03:31:28.853Z,62.1
2022-09-11T03:33:12.553Z,62.1
2022-09-11T03:34:56.263Z,62.1
2022-09-11T03:36:39.973Z,62.1
2022-09-11T03:38:23.661Z,62.1
2022-09-11T03:40:07.361Z,62.1
2022-09-11T03:41:51.080Z,62.1
2022-09-11T03:43:34.795Z,62.1
2022-09-11T03:45:18.468Z,62.1
2022-09-11T03:47:02.165Z,62.1
2022-09-11T03:48:45.880Z,62.1
2022-09-11T03:50:29.586Z,62.1
2022-09-11T03:52:13.261Z,62.1
2022-09-11T03:53:57.038Z,62.1
2022-09-11T03:55:40.683Z,62.1
2022-09-11T03:57:24.392Z,62.1
2022-09-11T03:59:08.086Z,62.1
2022-09-11T04:00:51.776Z,62.1
2022-09-11T04:02:35.499Z,62.1
2022-09-11T04:04:19.214Z,62
2022-09-11T04:06:02.876Z,62
2022-09-11T04:07:46.663Z,62
2022-09-11T04:09:30.303Z,62
2022-09-11T04:11:14.000Z,62.1
2022-09-11T04:12:57.756Z,62.1
2022-09-11T04:14:41.419Z,62
2022-09-11T04:16:25.102Z,62.1
2022-09-11T04:18:08.827Z,62
2022-09-11T04:19:52.508Z,62
2022-09-11T04:21:36.222Z,62
2022-09-11T04:23:19.918Z,62
2022-09-11T04:25:03.618Z,62
2022-09-11T04:26:47.314Z,62
2022-09-11T04:28:31.039Z,62
2022-09-11T04:30:14.806Z,62
2022-09-11T04:31:58.447Z,62
2022-09-11T04:33:42.171Z,62
2022-09-11T04:35:25.859Z,62
2022-09-11T04:37:09.563Z,62
2022-09-11T04:38:53.249Z,62
2022-09-11T04:40:36.942Z,62
2022-09-11T04:42:20.647Z,62
2022-09-11T04:44:04.364Z,62
2022-09-11T04:45:48.060Z,62
2022-09-11T04:47:31.761Z,62
2022-09-11T04:49:15.465Z,62
2022-09-11T04:50:59.174Z,62
2022-09-11T04:52:42.854Z,62
2022-09-11T04:54:26.558Z,62
2022-09-11T04:56:10.269Z,62
2022-09-11T04:57:53.966Z,62
2022-09-11T04:59:37.666Z,62
2022-09-11T05:01:21.381Z,62
2022-09-11T05:03:05.082Z,62
2022-09-11T05:04:48.792Z,61.9
2022-09-11T05:06:32.478Z,61.9
2022-09-11T05:08:16.185Z,62
2022-09-11T05:09:59.902Z,62
2022-09-11T05:11:43.617Z,62
2022-09-11T05:13:27.322Z,62
2022-09-11T05:15:10.999Z,62
2022-09-11T05:16:54.714Z,62
2022-09-11T05:18:38.428Z,62
2022-09-11T05:20:22.127Z,62
2022-09-11T05:22:05.829Z,62
2022-09-11T05:23:49.532Z,62
2022-09-11T05:25:33.222Z,62
2022-09-11T05:27:16.942Z,61.9
2022-09-11T05:29:00.627Z,62
2022-09-11T05:30:44.343Z,62
2022-09-11T05:32:28.027Z,62
2022-09-11T05:34:11.747Z,62
2022-09-11T05:35:55.439Z,62
2022-09-11T05:37:39.146Z,62.1
2022-09-11T05:39:22.842Z,62.1
2022-09-11T05:41:06.549Z,62.4
2022-09-11T05:42:50.261Z,62.4
2022-09-11T05:44:33.967Z,62.5
2022-09-11T05:46:17.638Z,63
2022-09-11T05:48:01.363Z,62.9
2022-09-11T05:49:45.064Z,62.8
2022-09-11T05:51:28.793Z,62.8
2022-09-11T05:53:12.463Z,62.8
2022-09-11T05:54:56.166Z,63.1
2022-09-11T05:56:39.936Z,63.9
2022-09-11T05:58:23.576Z,63.9
2022-09-11T06:00:07.390Z,63.7
2022-09-11T06:01:50.957Z,63.5
2022-09-11T06:03:34.704Z,63.6
2022-09-11T06:05:18.382Z,63.6
2022-09-11T06:07:02.096Z,63.3
2022-09-11T06:08:45.777Z,63.3
2022-09-11T06:10:29.481Z,63
2022-09-11T06:12:13.190Z,63
2022-09-11T06:13:56.930Z,62.9
2022-09-11T06:15:40.582Z,62.8
2022-09-11T06:17:24.308Z,62.9
2022-09-11T06:19:07.997Z,62.7
2022-09-11T06:20:51.707Z,62.7
2022-09-11T06:22:35.429Z,62.7
2022-09-11T06:24:19.114Z,62.7
2022-09-11T06:26:02.812Z,62.7
2022-09-11T06:27:46.522Z,62.6
2022-09-11T06:29:30.213Z,62.6
2022-09-11T06:31:13.927Z,62.6
2022-09-11T06:32:57.640Z,62.8
2022-09-11T06:34:41.352Z,62.8
2022-09-11T06:36:25.097Z,62.8
2022-09-11T06:38:08.748Z,62.8
2022-09-11T06:39:52.449Z,62.7
2022-09-11T06:41:36.156Z,62.7
2022-09-11T06:43:19.862Z,62.7
2022-09-11T06:45:03.569Z,62.6
2022-09-11T06:46:47.255Z,62.6
2022-09-11T06:48:30.962Z,62.5
2022-09-11T06:50:14.694Z,62.5
2022-09-11T06:51:58.380Z,62.4
2022-09-11T06:53:42.066Z,62.4
2022-09-11T06:55:25.772Z,62.3
2022-09-11T06:57:09.479Z,62.3
2022-09-11T06:58:53.191Z,62.2
2022-09-11T07:00:36.886Z,62.2
2022-09-11T07:02:20.620Z,62.2
2022-09-11T07:04:04.303Z,62.2
2022-09-11T07:05:47.984Z,62.2
2022-09-11T07:07:31.681Z,62.2
2022-09-11T07:09:15.389Z,62.2
2022-09-11T07:10:59.136Z,62.1
2022-09-11T07:12:42.794Z,62.1
2022-09-11T07:14:26.502Z,62.1
2022-09-11T07:16:10.201Z,62.1
2022-09-11T07:17:53.895Z,62
2022-09-11T07:19:37.613Z,62
2022-09-11T07:21:21.293Z,61.9
2022-09-11T07:23:04.989Z,61.9
2022-09-11T07:24:48.712Z,61.9
2022-09-11T07:26:32.409Z,61.8
2022-09-11T07:28:16.139Z,61.8
2022-09-11T07:29:59.800Z,61.7
2022-09-11T07:31:43.522Z,61.6
2022-09-11T07:33:27.235Z,61.6
2022-09-11T07:35:10.930Z,61.6
2022-09-11T07:36:54.612Z,61.6
2022-09-11T07:38:38.323Z,61.6
2022-09-11T07:40:22.029Z,61.5
2022-09-11T07:42:05.757Z,61.5
2022-09-11T07:43:49.420Z,61.4
2022-09-11T07:45:33.140Z,61.2
2022-09-11T07:47:16.877Z,61.1
2022-09-11T07:49:00.523Z,60.9
2022-09-11T07:50:44.230Z,60.8
2022-09-11T07:52:27.939Z,60.6
2022-09-11T07:54:11.623Z,60.4
2022-09-11T07:55:55.321Z,60.1
2022-09-11T07:57:39.034Z,60
2022-09-11T07:59:22.749Z,59.9
2022-09-11T08:01:06.411Z,59.9
2022-09-11T08:02:50.122Z,59.8
2022-09-11T08:04:33.825Z,59.8
2022-09-11T08:06:17.526Z,59.8
2022-09-11T08:08:01.211Z,59.8
2022-09-11T08:09:44.918Z,59.6
2022-09-11T08:11:28.638Z,59.5
2022-09-11T08:13:12.335Z,59.4
2022-09-11T08:14:56.024Z,59.4
2022-09-11T08:16:39.725Z,59.4
2022-09-11T08:18:23.432Z,59.3
2022-09-11T08:20:07.124Z,59.3
2022-09-11T08:21:50.910Z,59.4
2022-09-11T08:23:34.545Z,59.5
2022-09-11T08:25:18.231Z,59.6
2022-09-11T08:27:01.951Z,59.6
2022-09-11T08:28:45.642Z,59.7
2022-09-11T08:30:29.337Z,59.7
2022-09-11T08:32:13.152Z,59.7
2022-09-11T08:33:56.752Z,59.7
2022-09-11T08:35:40.444Z,59.6
2022-09-11T08:37:24.155Z,59.6
2022-09-11T08:39:07.861Z,59.5
2022-09-11T08:40:51.549Z,59.3
2022-09-11T08:42:35.263Z,59.1
2022-09-11T08:44:19.030Z,58.8
2022-09-11T08:46:02.666Z,58.7
2022-09-11T08:47:46.362Z,58.5
2022-09-11T08:49:30.104Z,58.4
2022-09-11T08:51:13.773Z,58.4
2022-09-11T08:52:57.480Z,58.5
2022-09-11T08:54:41.167Z,58.6
2022-09-11T08:56:24.887Z,58.7
2022-09-11T08:58:08.585Z,58.9
2022-09-11T08:59:52.290Z,59
2022-09-11T09:01:35.967Z,59.2
2022-09-11T09:03:19.680Z,59.4
2022-09-11T09:05:03.381Z,59.5
2022-09-11T09:06:47.107Z,59.5
2022-09-11T09:08:30.781Z,59.5
2022-09-11T09:10:14.483Z,59.4
2022-09-11T09:11:58.188Z,59.4
2022-09-11T09:13:41.885Z,59.2
2022-09-11T09:15:25.579Z,59.1
2022-09-11T09:17:09.351Z,59
2022-09-11T09:18:53.044Z,58.9
2022-09-11T09:20:36.688Z,58.7
2022-09-11T09:22:20.387Z,58.4
2022-09-11T09:24:04.080Z,58.1
2022-09-11T09:25:47.861Z,58.1
2022-09-11T09:27:31.541Z,58
2022-09-11T09:29:15.209Z,57.9
2022-09-11T09:30:58.901Z,57.6
2022-09-11T09:32:42.649Z,57.5
2022-09-11T09:34:26.298Z,57
2022-09-11T09:36:10.017Z,56.9
2022-09-11T09:37:53.715Z,56.7
2022-09-11T09:39:37.484Z,56.6
2022-09-11T09:41:21.106Z,56.6
2022-09-11T09:43:04.902Z,56.4
2022-09-11T09:44:48.532Z,56.4
2022-09-11T09:46:32.232Z,56.4
2022-09-11T09:48:15.947Z,56.5
2022-09-11T09:49:59.627Z,56.4
2022-09-11T09:51:43.335Z,56.4
2022-09-11T09:53:27.045Z,56.4
2022-09-11T09:55:10.726Z,56.4
2022-09-11T09:56:54.430Z,56.5
2022-09-11T09:58:38.148Z,56.5
2022-09-11T10:00:21.835Z,56.5
2022-09-11T10:02:05.561Z,56.5
2022-09-11T10:05:32.960Z,56.5
2022-09-11T10:07:16.636Z,56.4
2022-09-11T10:09:00.452Z,56.4
2022-09-11T10:10:44.065Z,56.4
2022-09-11T10:12:27.765Z,56.4
2022-09-11T10:14:11.443Z,56.3
2022-09-11T10:15:55.173Z,56.3
2022-09-11T10:17:38.898Z,56.2
2022-09-11T10:19:22.828Z,56.1
2022-09-11T10:21:06.277Z,56.1
2022-09-11T10:22:49.998Z,56
2022-09-11T10:24:33.675Z,55.8
2022-09-11T10:26:17.372Z,55.6
2022-09-11T10:28:01.076Z,55.5
2022-09-11T10:29:44.784Z,55.3
2022-09-11T10:31:28.489Z,55
2022-09-11T10:33:12.178Z,54.8
2022-09-11T10:34:55.954Z,54.7
2022-09-11T10:36:39.575Z,54.7
2022-09-11T10:38:23.299Z,54.8
2022-09-11T10:40:06.979Z,55
2022-09-11T10:41:50.683Z,55.2
2022-09-11T10:43:34.401Z,55.5
2022-09-11T10:45:18.094Z,55.7
2022-09-11T10:47:01.815Z,55.8
2022-09-11T10:48:45.584Z,55.7
2022-09-11T10:50:29.211Z,55.8
2022-09-11T10:52:12.912Z,55.9
2022-09-11T10:53:56.614Z,55.9
2022-09-11T10:55:40.326Z,55.7
2022-09-11T10:57:24.016Z,55.7
2022-09-11T10:59:07.717Z,55.5
2022-09-11T11:00:51.409Z,55.4
2022-09-11T11:02:35.123Z,55.4
2022-09-11T11:04:18.854Z,55.3
2022-09-11T11:06:02.539Z,55.2
2022-09-11T11:07:46.231Z,55
2022-09-11T11:09:29.928Z,55
2022-09-11T11:11:13.627Z,54.9
2022-09-11T11:12:57.330Z,54.8
2022-09-11T11:14:41.058Z,54.7
2022-09-11T11:16:24.779Z,54.6
2022-09-11T11:18:08.730Z,54.6
2022-09-11T11:19:52.156Z,54.6
2022-09-11T11:21:35.850Z,54.6
2022-09-11T11:23:19.559Z,54.5
2022-09-11T11:25:03.260Z,54.3
2022-09-11T11:26:46.933Z,54.1
2022-09-11T11:28:30.653Z,54
2022-09-11T11:30:14.341Z,53.8
2022-09-11T11:31:58.049Z,53.7
2022-09-11T11:33:41.787Z,53.7
2022-09-11T11:35:25.455Z,53.8
2022-09-11T11:37:09.149Z,53.8
2022-09-11T11:38:52.853Z,54
2022-09-11T11:40:36.564Z,54.1
2022-09-11T11:42:20.507Z,54.2
2022-09-11T11:44:03.969Z,54.3
2022-09-11T11:45:47.660Z,54.5
2022-09-11T11:47:31.368Z,54.5
2022-09-11T11:49:15.070Z,54.6
2022-09-11T11:50:58.772Z,54.7
2022-09-11T11:52:42.466Z,54.7
2022-09-11T11:54:26.179Z,54.8
2022-09-11T11:56:09.875Z,54.9
2022-09-11T11:57:53.567Z,54.9
2022-09-11T11:59:37.272Z,54.9
2022-09-11T12:01:20.981Z,54.8
2022-09-11T12:03:04.679Z,54.7
2022-09-11T12:04:48.378Z,54.7
2022-09-11T12:06:32.078Z,54.7
2022-09-11T12:08:15.848Z,54.6
2022-09-11T12:09:59.477Z,54.6
2022-09-11T12:11:43.196Z,54.6
2022-09-11T12:13:26.891Z,54.6
2022-09-11T12:15:10.603Z,54.6
2022-09-11T12:16:54.305Z,54.6
2022-09-11T12:18:38.002Z,54.6
2022-09-11T12:20:21.715Z,54.6
2022-09-11T12:22:05.414Z,54.9
2022-09-11T12:23:49.138Z,55
2022-09-11T12:25:32.821Z,55.1
2022-09-11T12:27:16.543Z,55.1
2022-09-11T12:29:00.221Z,55
2022-09-11T12:30:43.915Z,55
2022-09-11T12:32:27.623Z,55.1
2022-09-11T12:34:11.336Z,55.1
2022-09-11T12:35:55.041Z,55.1
2022-09-11T12:37:38.744Z,55
2022-09-11T12:39:22.442Z,55
2022-09-11T12:41:06.129Z,54.8
2022-09-11T12:42:49.833Z,54.8
2022-09-11T12:44:33.525Z,54.7
2022-09-11T12:46:17.241Z,54.6
2022-09-11T12:48:00.932Z,54.6
2022-09-11T12:49:44.646Z,54.6
2022-09-11T12:51:28.366Z,54.6
2022-09-11T12:53:12.055Z,54.6
2022-09-11T12:54:55.751Z,54.6
2022-09-11T12:56:39.449Z,54.6
2022-09-11T12:58:23.158Z,54.7
2022-09-11T13:00:06.889Z,54.7
2022-09-11T13:01:50.549Z,54.7
2022-09-11T13:03:34.266Z,54.7
2022-09-11T13:05:17.961Z,54.6
2022-09-11T13:07:01.662Z,54.8
2022-09-11T13:08:45.352Z,54.8
2022-09-11T13:10:29.071Z,54.8
2022-09-11T13:12:12.822Z,54.8
2022-09-11T13:13:56.481Z,54.8
2022-09-11T13:15:40.164Z,54.8
2022-09-11T13:17:23.856Z,54.9
2022-09-11T13:19:07.567Z,54.9
2022-09-11T13:20:51.272Z,54.9
2022-09-11T13:22:34.963Z,54.9
2022-09-11T13:24:18.680Z,54.9
2022-09-11T13:26:02.372Z,54.9
2022-09-11T13:27:46.115Z,55
2022-09-11T13:29:29.771Z,55
2022-09-11T13:31:13.489Z,55.1
2022-09-11T13:32:57.180Z,55.2
2022-09-11T13:34:40.886Z,55.2
2022-09-11T13:36:24.591Z,55.3
2022-09-11T13:38:08.297Z,55.3
2022-09-11T13:39:52.013Z,55.4
2022-09-11T13:41:35.704Z,55.4
2022-09-11T13:43:19.408Z,55.5
2022-09-11T13:45:03.121Z,55.6
2022-09-11T13:46:46.805Z,55.6
2022-09-11T13:48:30.509Z,55.7
2022-09-11T13:50:14.202Z,55.7
2022-09-11T13:51:57.912Z,55.7
2022-09-11T13:55:25.341Z,55.7
2022-09-11T13:57:09.009Z,55.7
2022-09-11T13:58:52.734Z,55.6
2022-09-11T14:00:36.427Z,55.5
2022-09-11T14:02:20.110Z,55.4
2022-09-11T14:04:03.811Z,55.4
2022-09-11T14:05:47.546Z,55.3
2022-09-11T14:07:31.235Z,55.3
2022-09-11T14:09:14.937Z,55.2
2022-09-11T14:10:58.638Z,55.1
2022-09-11T14:12:42.355Z,55.1
2022-09-11T14:14:26.040Z,55.1
2022-09-11T14:16:09.734Z,55.2
2022-09-11T14:17:53.439Z,55.3
2022-09-11T14:19:37.156Z,55.4
2022-09-11T14:21:20.832Z,55.5
2022-09-11T14:23:04.550Z,55.6
2022-09-11T14:24:48.255Z,55.7
2022-09-11T14:26:31.968Z,55.8
2022-09-11T14:28:15.641Z,55.9
2022-09-11T14:29:59.364Z,56
2022-09-11T14:31:43.065Z,56
2022-09-11T14:33:26.770Z,56.1
2022-09-11T14:35:10.479Z,56.2
2022-09-11T14:36:54.173Z,56.2
2022-09-11T14:38:37.866Z,56.3
2022-09-11T14:40:21.570Z,56.4
2022-09-11T14:42:05.308Z,56.5
2022-09-11T14:43:48.976Z,56.5
2022-09-11T14:45:32.671Z,56.6
2022-09-11T14:47:16.370Z,56.6
2022-09-11T14:49:00.074Z,56.7
2022-09-11T14:50:43.761Z,56.8
2022-09-11T14:52:27.486Z,56.8
2022-09-11T14:54:11.175Z,56.9
2022-09-11T14:55:54.875Z,56.9
2022-09-11T14:57:38.582Z,57
2022-09-11T14:59:22.281Z,57
2022-09-11T15:01:05.997Z,57
2022-09-11T15:02:49.676Z,57.1
2022-09-11T15:04:33.399Z,57.1
2022-09-11T15:06:17.093Z,57.2
2022-09-11T15:08:00.791Z,57.2
2022-09-11T15:09:44.477Z,57.3
2022-09-11T15:11:28.184Z,57.4
2022-09-11T15:13:11.903Z,57.5
2022-09-11T15:14:55.625Z,57.5
2022-09-11T15:16:39.298Z,57.5
2022-09-11T15:18:23.044Z,57.6
2022-09-11T15:20:06.698Z,57.7
2022-09-11T15:21:50.398Z,57.7
2022-09-11T15:23:34.128Z,57.8
2022-09-11T15:25:17.816Z,57.8
2022-09-11T15:27:01.534Z,57.9
2022-09-11T15:28:45.202Z,57.9
2022-09-11T15:30:28.923Z,57.9
2022-09-11T15:32:12.680Z,57.9
2022-09-11T15:33:56.337Z,57.9
2022-09-11T15:35:40.027Z,57.9
2022-09-11T15:37:23.726Z,58
2022-09-11T15:39:07.432Z,58
2022-09-11T15:40:51.136Z,58
2022-09-11T15:42:34.828Z,58
2022-09-11T15:44:18.527Z,58
2022-09-11T15:46:02.249Z,58
2022-09-11T15:47:45.935Z,58.1
2022-09-11T15:49:29.642Z,58.1
2022-09-11T15:51:13.351Z,58.1
2022-09-11T15:52:57.046Z,58.1
2022-09-11T15:54:40.760Z,58.2
2022-09-11T15:56:24.454Z,58.2
2022-09-11T15:58:08.166Z,58.2
2022-09-11T15:59:51.860Z,58.3
2022-09-11T16:01:35.562Z,58.4
2022-09-11T16:03:19.266Z,58.4
2022-09-11T16:05:02.962Z,58.5
2022-09-11T16:06:46.668Z,58.5
2022-09-11T16:08:30.361Z,58.6
2022-09-11T16:10:14.067Z,58.6
2022-09-11T16:11:57.771Z,58.7
2022-09-11T16:13:41.482Z,58.7
2022-09-11T16:15:25.177Z,58.7
2022-09-11T16:17:08.865Z,58.7
2022-09-11T16:18:52.574Z,58.8
2022-09-11T16:20:36.288Z,58.8
2022-09-11T16:22:20.008Z,58.8
2022-09-11T16:24:03.692Z,58.8
2022-09-11T16:25:47.395Z,58.9
2022-09-11T16:27:31.081Z,58.9
2022-09-11T16:29:14.785Z,58.9
2022-09-11T16:30:58.466Z,59
2022-09-11T16:32:42.245Z,59
2022-09-11T16:34:25.893Z,59
2022-09-11T16:36:09.620Z,59.1
2022-09-11T16:37:53.290Z,59.1
2022-09-11T16:39:37.018Z,59.1
2022-09-11T16:41:20.704Z,59.2
2022-09-11T16:43:04.383Z,59.2
2022-09-11T16:44:48.077Z,59.3
2022-09-11T16:46:31.814Z,59.3
2022-09-11T16:48:15.493Z,59.3
2022-09-11T16:49:59.191Z,59.4
2022-09-11T16:51:42.896Z,59.4
2022-09-11T16:53:26.603Z,59.4
2022-09-11T16:55:10.345Z,59.5
2022-09-11T16:56:53.999Z,59.5
2022-09-11T16:58:37.693Z,59.5
2022-09-11T17:00:21.409Z,59.5
2022-09-11T17:02:05.095Z,59.6
2022-09-11T17:03:48.801Z,59.6
2022-09-11T17:05:32.505Z,59.6
2022-09-11T17:07:16.213Z,59.7
2022-09-11T17:08:59.913Z,59.8
2022-09-11T17:10:43.615Z,59.8
2022-09-11T17:12:27.355Z,59.8
2022-09-11T17:14:11.032Z,59.9
2022-09-11T17:15:54.721Z,59.9
2022-09-11T17:17:38.430Z,59.9
2022-09-11T17:19:22.105Z,60
2022-09-11T17:21:05.823Z,60
2022-09-11T17:22:49.522Z,60
2022-09-11T17:24:33.226Z,60.1
2022-09-11T17:26:16.923Z,60.2
2022-09-11T17:28:00.680Z,60.2
2022-09-11T17:29:44.331Z,60.2
2022-09-11T17:31:28.011Z,60.3
2022-09-11T17:33:11.734Z,60.4
2022-09-11T17:34:55.484Z,60.3
2022-09-11T17:36:39.222Z,60.4
2022-09-11T17:38:22.833Z,60.5
2022-09-11T17:40:06.539Z,60.5
2022-09-11T17:41:50.229Z,60.5
2022-09-11T17:43:33.945Z,60.6
2022-09-11T17:45:17.630Z,60.6
2022-09-11T17:47:01.349Z,60.6
2022-09-11T17:48:45.050Z,60.7
2022-09-11T17:50:28.747Z,60.7
2022-09-11T17:52:12.478Z,60.7
2022-09-11T17:53:56.136Z,60.7
2022-09-11T17:55:39.847Z,60.8
2022-09-11T17:57:23.630Z,60.8
2022-09-11T17:59:07.242Z,60.9
2022-09-11T18:00:50.932Z,60.9
2022-09-11T18:02:34.694Z,61
2022-09-11T18:04:18.339Z,61
2022-09-11T18:06:02.018Z,61.1
2022-09-11T18:07:45.757Z,61.1
2022-09-11T18:09:29.486Z,61.1
2022-09-11T18:11:13.183Z,61.1
2022-09-11T18:12:56.852Z,61.2
2022-09-11T18:14:40.540Z,61.2
2022-09-11T18:16:24.255Z,61.2
2022-09-11T18:18:07.930Z,61.3
2022-09-11T18:19:51.634Z,61.3
2022-09-11T18:21:35.337Z,61.3
2022-09-11T18:23:19.060Z,61.4
2022-09-11T18:25:02.748Z,61.4
2022-09-11T18:26:46.439Z,61.4
2022-09-11T18:28:30.146Z,61.5
2022-09-11T18:30:13.835Z,61.5
2022-09-11T18:31:57.528Z,61.5
2022-09-11T18:33:41.228Z,61.5
2022-09-11T18:35:24.941Z,61.5
2022-09-11T18:37:08.756Z,61.6
2022-09-11T18:38:52.316Z,61.6
2022-09-11T18:40:36.031Z,61.7
2022-09-11T18:42:19.733Z,61.7
2022-09-11T18:44:03.463Z,61.7
2022-09-11T18:45:47.127Z,61.7
2022-09-11T18:47:30.837Z,61.7
2022-09-11T18:49:14.542Z,61.8
2022-09-11T18:50:58.240Z,61.8
2022-09-11T18:52:41.934Z,61.8
2022-09-11T18:54:25.682Z,61.8
2022-09-11T18:56:09.356Z,61.8
2022-09-11T18:57:53.070Z,61.8
2022-09-11T18:59:36.756Z,61.8
2022-09-11T19:01:20.458Z,61.9
2022-09-11T19:03:04.152Z,61.9
2022-09-11T19:04:47.875Z,62
2022-09-11T19:06:31.560Z,61.9
2022-09-11T19:08:15.274Z,62
2022-09-11T19:09:58.964Z,61.9
2022-09-11T19:11:42.712Z,61.9
2022-09-11T19:13:26.396Z,62
2022-09-11T19:15:10.092Z,62
2022-09-11T19:16:53.779Z,62
2022-09-11T19:18:37.496Z,62.1
2022-09-11T19:20:21.223Z,62
2022-09-11T19:22:04.897Z,62.1
2022-09-11T19:23:48.596Z,62.1
2022-09-11T19:25:32.313Z,62.1
2022-09-11T19:27:15.991Z,62.1
2022-09-11T19:28:59.701Z,62.2
2022-09-11T19:30:43.410Z,62.2
2022-09-11T19:32:27.139Z,62.2
2022-09-11T19:34:10.825Z,62.3
2022-09-11T19:35:54.510Z,62.3
2022-09-11T19:37:38.239Z,62.3
2022-09-11T19:39:21.922Z,62.3
2022-09-11T19:41:05.614Z,62.3
2022-09-11T19:42:49.381Z,62.3
2022-09-11T19:44:33.067Z,62.3
2022-09-11T19:46:16.718Z,62.4
2022-09-11T19:48:00.431Z,62.4
2022-09-11T19:49:44.133Z,62.4
2022-09-11T19:51:27.839Z,62.4
2022-09-11T19:53:11.549Z,62.5
2022-09-11T19:54:55.221Z,62.5
2022-09-11T19:56:38.941Z,62.5
2022-09-11T19:58:22.637Z,62.5
2022-09-11T20:00:06.354Z,62.5
2022-09-11T20:01:50.045Z,62.5
2022-09-11T20:03:33.763Z,62.5
2022-09-11T20:05:17.504Z,62.5
2022-09-11T20:07:01.178Z,62.6
2022-09-11T20:08:44.927Z,62.6
2022-09-11T20:10:28.574Z,62.6
2022-09-11T20:12:12.279Z,62.6
2022-09-11T20:13:55.971Z,62.6
2022-09-11T20:15:39.674Z,62.6
2022-09-11T20:17:23.384Z,62.6
2022-09-11T20:19:07.102Z,62.6
2022-09-11T20:20:50.797Z,62.6
2022-09-11T20:22:34.488Z,62.6
2022-09-11T20:24:18.243Z,62.7
2022-09-11T20:26:01.907Z,62.6
2022-09-11T20:27:45.605Z,62.7
2022-09-11T20:29:29.342Z,62.7
2022-09-11T20:31:13.009Z,62.7
2022-09-11T20:32:56.732Z,62.7
2022-09-11T20:34:40.404Z,62.7
2022-09-11T20:36:24.110Z,62.7
2022-09-11T20:38:07.820Z,62.7
2022-09-11T20:39:51.508Z,62.7
2022-09-11T20:41:35.200Z,62.8
2022-09-11T20:43:19.004Z,62.8
2022-09-11T20:45:02.614Z,62.8
2022-09-11T20:46:46.331Z,62.8
2022-09-11T20:48:30.024Z,62.8
2022-09-11T20:50:13.732Z,62.8
2022-09-11T20:51:57.462Z,62.8
2022-09-11T20:53:41.126Z,62.8
2022-09-11T20:55:24.819Z,62.8
2022-09-11T20:57:08.527Z,62.8
2022-09-11T20:58:52.235Z,62.8
2022-09-11T21:00:35.934Z,62.8
2022-09-11T21:02:19.633Z,62.8
2022-09-11T21:04:03.324Z,62.8
2022-09-11T21:05:47.032Z,62.8
2022-09-11T21:07:30.756Z,62.9
2022-09-11T21:09:14.432Z,62.8
2022-09-11T21:10:58.142Z,62.9
2022-09-11T21:12:41.903Z,62.9
2022-09-11T21:14:25.536Z,62.9
2022-09-11T21:16:09.234Z,62.9
2022-09-11T21:17:52.942Z,62.9
2022-09-11T21:19:36.670Z,62.9
2022-09-11T21:21:20.359Z,62.9
2022-09-11T21:23:04.055Z,62.9
2022-09-11T21:24:47.760Z,62.9
2022-09-11T21:26:31.464Z,62.9
2022-09-11T21:28:15.233Z,62.9
2022-09-11T21:29:58.877Z,62.9
2022-09-11T21:31:42.593Z,62.9
2022-09-11T21:33:26.306Z,62.9
2022-09-11T21:35:09.979Z,62.9
2022-09-11T21:36:53.681Z,62.9
2022-09-11T21:38:37.396Z,62.9
2022-09-11T21:40:21.110Z,62.9
2022-09-11T21:42:04.795Z,62.9
2022-09-11T21:43:48.515Z,62.9
2022-09-11T21:45:32.269Z,62.9
2022-09-11T21:47:15.914Z,63
2022-09-11T21:48:59.676Z,62.9
2022-09-11T21:50:43.306Z,62.9
2022-09-11T21:52:27.009Z,62.9
2022-09-11T21:54:10.720Z,62.9
2022-09-11T21:55:54.407Z,62.9
2022-09-11T21:57:38.192Z,63
2022-09-11T21:59:21.814Z,63
2022-09-11T22:01:05.546Z,63
2022-09-11T22:02:49.251Z,63
2022-09-11T22:04:32.916Z,63
2022-09-11T22:06:16.612Z,63
2022-09-11T22:08:00.330Z,63
2022-09-11T22:09:44.022Z,63
2022-09-11T22:11:27.722Z,63
2022-09-11T22:13:11.433Z,63
2022-09-11T22:14:55.138Z,62.9
2022-09-11T22:16:38.810Z,62.9
2022-09-11T22:18:22.521Z,63
2022-09-11T22:20:06.237Z,63
2022-09-11T22:21:49.940Z,63
2022-09-11T22:23:33.675Z,63
2022-09-11T22:25:17.331Z,63
2022-09-11T22:27:01.090Z,63
2022-09-11T22:28:44.725Z,62.9
2022-09-11T22:30:28.435Z,63
2022-09-11T22:32:12.140Z,63
2022-09-11T22:33:55.841Z,63
2022-09-11T22:35:39.539Z,63
2022-09-11T22:37:23.233Z,63
2022-09-11T22:39:06.965Z,63
2022-09-11T22:40:50.638Z,63
2022-09-11T22:42:34.334Z,63
2022-09-11T22:44:18.035Z,63
2022-09-11T22:46:01.741Z,63
2022-09-11T22:47:45.441Z,63
2022-09-11T22:49:29.152Z,63
2022-09-11T22:51:12.855Z,63
2022-09-11T22:52:56.542Z,63
2022-09-11T22:54:40.254Z,62.9
2022-09-11T22:56:23.938Z,63
2022-09-11T22:58:07.629Z,63
2022-09-11T22:59:51.349Z,63
2022-09-11T23:01:35.051Z,63
2022-09-11T23:03:18.765Z,63
2022-09-11T23:05:02.434Z,63
2022-09-11T23:06:46.134Z,63
2022-09-11T23:08:29.867Z,63
2022-09-11T23:10:13.587Z,63
2022-09-11T23:11:57.259Z,62.9
2022-09-11T23:13:41.035Z,62.9
2022-09-11T23:15:24.670Z,63
2022-09-11T23:17:08.376Z,62.9
2022-09-11T23:18:52.080Z,63